Overview Statistics Trail Chart Weather Telemetry Raw packets
 

This is the latest recevied weather packets stored in our database for station/object IU1OLT-6. If no packets are shown the sender has not sent any weather packets the latest 10 day(s).

<< 8 9 10 11 12 13 14 >>
Time Temp. Humidity Pressure Rain* Wind** Luminosity Snow
1788467937 18.33° C 46% 1017.9 hPa 0 mm - - -
1788466977 17.78° C 60% 1017.9 hPa 0 mm - - -
1788466017 17.78° C 61% 1017.9 hPa 0 mm - - -
1788465057 17.78° C 66% 1017.9 hPa 0 mm - - -
1788464097 18.33° C 59% 1017.8 hPa 0 mm - - -
1788463137 17.78° C 67% 1017.7 hPa 0 mm - - -
1788462177 17.22° C 76% 1017.7 hPa 0 mm - - -
1788461217 17.22° C 79% 1017.6 hPa 0 mm - - -
1788460257 16.67° C 85% 1017.5 hPa 0 mm - - -
1788459297 17.22° C 86% 1017.2 hPa 0 mm - - -
1788458337 17.22° C 85% 1017.1 hPa 0 mm - - -
1788457377 17.78° C 83% 1016.9 hPa 0 mm - - -
1788456465 18.89° C 77% 1016.8 hPa 0 mm - - -
1788455553 17.78° C 81% 1016.9 hPa 0 mm - - -
1788454593 18.89° C 77% 1016.8 hPa 0 mm - - -
1788453633 20° C 73% 1016.7 hPa 0 mm - - -
1788452673 20.56° C 75% 1016.7 hPa 0 mm - - -
1788451713 20° C 73% 1016.6 hPa 0 mm - - -
1788450753 20.56° C 76% 1016.8 hPa 0 mm - - -
1788449793 19.44° C 80% 1016.9 hPa 0 mm - - -
1788448881 19.44° C 76% 1017 hPa 0 mm - - -
1788447969 17.78° C 86% 1017 hPa 0 mm - - -
1788447009 18.89° C 83% 1016.9 hPa 0 mm - - -
1788446049 18.33° C 84% 1017 hPa 0 mm - - -
1788445089 18.33° C 83% 1017.2 hPa 0 mm - - -

* Rain latest hour (hover to see other rain measurements)
** Current wind speed in m/s (hover to see current wind gust speed)